createdAt,value
2018-09-30T00:00:40.927Z,969.49
2018-09-30T00:01:40.904Z,969.55
2018-09-30T00:02:40.894Z,969.49
2018-09-30T00:03:40.885Z,969.52
2018-09-30T00:04:40.904Z,969.53
2018-09-30T00:05:40.862Z,969.53
2018-09-30T00:06:40.854Z,969.59
2018-09-30T00:07:40.846Z,969.62
2018-09-30T00:08:40.829Z,969.58
2018-09-30T00:09:40.823Z,969.63
2018-09-30T00:10:40.840Z,969.63
2018-09-30T00:11:40.793Z,969.60
2018-09-30T00:12:40.813Z,969.61
2018-09-30T00:13:40.769Z,969.55
2018-09-30T00:14:40.759Z,969.56
2018-09-30T00:15:40.772Z,969.61
2018-09-30T00:16:40.736Z,969.56
2018-09-30T00:17:40.727Z,969.53
2018-09-30T00:18:40.733Z,969.53
2018-09-30T00:19:40.752Z,969.54
2018-09-30T00:20:40.733Z,969.52
2018-09-30T00:21:40.686Z,969.52
2018-09-30T00:22:40.677Z,969.45
2018-09-30T00:23:40.658Z,969.38
2018-09-30T00:24:40.654Z,969.42
2018-09-30T00:25:40.670Z,969.41
2018-09-30T00:26:40.659Z,969.41
2018-09-30T00:27:40.619Z,969.43
2018-09-30T00:28:40.612Z,969.40
2018-09-30T00:29:40.593Z,969.43
2018-09-30T00:30:40.584Z,969.36
2018-09-30T00:31:40.595Z,969.37
2018-09-30T00:32:40.559Z,969.34
2018-09-30T00:33:40.556Z,969.32
2018-09-30T00:34:40.543Z,969.32
2018-09-30T00:35:40.526Z,969.29
2018-09-30T00:36:40.544Z,969.31
2018-09-30T00:37:40.515Z,969.27
2018-09-30T00:38:40.493Z,969.27
2018-09-30T00:39:40.495Z,969.19
2018-09-30T00:40:40.475Z,969.18
2018-09-30T00:41:40.502Z,969.19
2018-09-30T00:42:40.455Z,969.22
2018-09-30T00:43:40.443Z,969.21
2018-09-30T00:44:40.430Z,969.20
2018-09-30T00:45:40.422Z,969.18
2018-09-30T00:46:40.437Z,969.19
2018-09-30T00:47:40.429Z,969.12
2018-09-30T00:48:40.383Z,969.15
2018-09-30T00:49:40.376Z,969.15
2018-09-30T00:50:40.371Z,969.10
2018-09-30T00:51:40.352Z,969.07
2018-09-30T00:52:40.371Z,969.10
2018-09-30T00:53:40.338Z,969.05
2018-09-30T00:54:40.319Z,969.07
2018-09-30T00:55:40.309Z,969.09
2018-09-30T00:56:40.299Z,969.02
2018-09-30T00:57:40.349Z,969.03
2018-09-30T00:58:40.278Z,969.03
2018-09-30T00:59:40.271Z,969.02
2018-09-30T01:00:40.256Z,968.98
2018-09-30T01:01:40.244Z,969.02
2018-09-30T01:02:40.276Z,968.90
2018-09-30T01:03:40.256Z,968.92
2018-09-30T01:04:40.212Z,968.91
2018-09-30T01:05:40.199Z,968.90
2018-09-30T01:06:40.201Z,968.91
2018-09-30T01:07:40.176Z,968.91
2018-09-30T01:08:40.191Z,968.95
2018-09-30T01:09:40.167Z,968.90
2018-09-30T01:10:40.166Z,968.92
2018-09-30T01:11:40.144Z,968.91
2018-09-30T01:12:40.121Z,968.89
2018-09-30T01:13:40.135Z,968.91
2018-09-30T01:14:40.097Z,968.86
2018-09-30T01:15:40.087Z,968.87
2018-09-30T01:16:40.077Z,968.88
2018-09-30T01:17:40.068Z,968.88
2018-09-30T01:18:40.091Z,968.93
2018-09-30T01:19:40.044Z,968.90
2018-09-30T01:20:40.097Z,968.93
2018-09-30T01:21:40.022Z,968.89
2018-09-30T01:22:40.013Z,968.92
2018-09-30T01:23:40.046Z,968.89
2018-09-30T01:24:40.015Z,968.93
2018-09-30T01:25:39.979Z,968.96
2018-09-30T01:26:39.969Z,968.95
2018-09-30T01:27:39.958Z,968.91
2018-09-30T01:28:39.944Z,968.98
2018-09-30T01:29:39.959Z,968.93
2018-09-30T01:30:39.935Z,968.94
2018-09-30T01:31:39.916Z,968.97
2018-09-30T01:32:39.901Z,969.00
2018-09-30T01:33:39.902Z,968.98
2018-09-30T01:34:39.909Z,968.99
2018-09-30T01:35:39.891Z,968.98
2018-09-30T01:36:39.866Z,969.04
2018-09-30T01:37:39.861Z,969.04
2018-09-30T01:38:39.842Z,969.04
2018-09-30T01:39:39.856Z,969.06
2018-09-30T01:40:39.860Z,969.04
2018-09-30T01:41:39.808Z,969.09
2018-09-30T01:42:39.805Z,969.06
2018-09-30T01:43:39.782Z,969.08
2018-09-30T01:44:39.816Z,969.04
2018-09-30T01:45:39.761Z,969.05
2018-09-30T01:46:39.758Z,969.06
2018-09-30T01:47:39.737Z,969.01
2018-09-30T01:48:39.738Z,969.08
2018-09-30T01:49:39.715Z,969.01
2018-09-30T01:50:39.747Z,969.05
2018-09-30T01:51:39.727Z,969.07
2018-09-30T01:52:39.685Z,969.01
2018-09-30T01:53:39.670Z,969.02
2018-09-30T01:54:39.658Z,968.97
2018-09-30T01:55:39.685Z,968.96
2018-09-30T01:56:39.652Z,969.00
2018-09-30T01:57:39.637Z,968.93
2018-09-30T01:58:39.627Z,968.90
2018-09-30T01:59:39.607Z,968.90
2018-09-30T02:00:39.626Z,968.83
2018-09-30T02:01:39.584Z,968.86
2018-09-30T02:02:39.599Z,968.83
2018-09-30T02:03:39.562Z,968.85
2018-09-30T02:04:39.548Z,968.85
2018-09-30T02:05:39.576Z,968.81
2018-09-30T02:06:39.536Z,968.77
2018-09-30T02:07:39.517Z,968.78
2018-09-30T02:08:39.505Z,968.78
2018-09-30T02:09:39.501Z,968.77
2018-09-30T02:10:39.520Z,968.78
2018-09-30T02:11:39.473Z,968.78
2018-09-30T02:12:39.468Z,968.82
2018-09-30T02:13:39.447Z,968.84
2018-09-30T02:14:39.440Z,968.80
2018-09-30T02:15:39.452Z,968.79
2018-09-30T02:16:39.447Z,968.78
2018-09-30T02:17:39.406Z,968.79
2018-09-30T02:18:39.398Z,968.77
2018-09-30T02:19:39.396Z,968.78
2018-09-30T02:20:39.378Z,968.76
2018-09-30T02:21:39.383Z,968.78
2018-09-30T02:22:39.363Z,968.79
2018-09-30T02:23:39.339Z,968.79
2018-09-30T02:24:39.336Z,968.77
2018-09-30T02:25:39.324Z,968.78
2018-09-30T02:26:39.404Z,968.71
2018-09-30T02:27:39.300Z,968.77
2018-09-30T02:28:39.294Z,968.75
2018-09-30T02:29:39.273Z,968.79
2018-09-30T02:30:39.302Z,968.71
2018-09-30T02:31:39.301Z,968.71
2018-09-30T02:32:39.255Z,968.65
2018-09-30T02:33:39.232Z,968.65
2018-09-30T02:34:39.224Z,968.66
2018-09-30T02:35:39.223Z,968.67
2018-09-30T02:36:39.260Z,968.66
2018-09-30T02:37:39.218Z,968.75
2018-09-30T02:38:39.187Z,968.75
2018-09-30T02:39:39.165Z,968.76
2018-09-30T02:40:39.157Z,968.68
2018-09-30T02:41:39.144Z,968.67
2018-09-30T02:42:39.170Z,968.67
2018-09-30T02:43:39.124Z,968.65
2018-09-30T02:44:39.140Z,968.66
2018-09-30T02:45:39.099Z,968.64
2018-09-30T02:46:39.099Z,968.60
2018-09-30T02:47:39.116Z,968.54
2018-09-30T02:48:39.066Z,968.57
2018-09-30T02:49:39.065Z,968.64
2018-09-30T02:50:39.077Z,968.62
2018-09-30T02:51:39.033Z,968.63
2018-09-30T02:52:39.051Z,968.58
2018-09-30T02:53:39.034Z,968.63
2018-09-30T02:54:39.006Z,968.61
2018-09-30T02:55:38.993Z,968.64
2018-09-30T02:56:38.982Z,968.63
2018-09-30T02:57:38.977Z,968.57
2018-09-30T02:58:38.987Z,968.57
2018-09-30T02:59:38.955Z,968.64
2018-09-30T03:00:38.944Z,968.64
2018-09-30T03:01:38.941Z,968.61
2018-09-30T03:02:38.927Z,968.64
2018-09-30T03:03:38.925Z,968.60
2018-09-30T03:04:38.891Z,968.63
2018-09-30T03:05:38.889Z,968.61
2018-09-30T03:06:38.867Z,968.60
2018-09-30T03:07:38.856Z,968.55
2018-09-30T03:08:38.894Z,968.60
2018-09-30T03:09:38.833Z,968.54
2018-09-30T03:10:38.823Z,968.54
2018-09-30T03:11:38.829Z,968.54
2018-09-30T03:12:38.808Z,968.47
2018-09-30T03:13:38.820Z,968.47
2018-09-30T03:14:38.800Z,968.47
2018-09-30T03:15:38.769Z,968.46
2018-09-30T03:16:38.761Z,968.46
2018-09-30T03:17:38.764Z,968.43
2018-09-30T03:18:38.732Z,968.41
2018-09-30T03:19:38.765Z,968.45
2018-09-30T03:20:38.720Z,968.46
2018-09-30T03:21:38.713Z,968.41
2018-09-30T03:22:38.691Z,968.39
2018-09-30T03:23:38.687Z,968.42
2018-09-30T03:24:38.707Z,968.40
2018-09-30T03:25:38.660Z,968.39
2018-09-30T03:26:38.651Z,968.41
2018-09-30T03:27:38.634Z,968.39
2018-09-30T03:28:38.622Z,968.35
2018-09-30T03:29:38.637Z,968.36
2018-09-30T03:30:38.606Z,968.30
2018-09-30T03:31:38.590Z,968.31
2018-09-30T03:32:38.654Z,968.32
2018-09-30T03:33:38.567Z,968.36
2018-09-30T03:34:38.594Z,968.38
2018-09-30T03:35:38.551Z,968.39
2018-09-30T03:36:38.534Z,968.36
2018-09-30T03:37:38.524Z,968.38
2018-09-30T03:38:38.522Z,968.29
2018-09-30T03:39:38.583Z,968.32
2018-09-30T03:40:38.512Z,968.30
2018-09-30T03:41:38.480Z,968.24
2018-09-30T03:42:38.477Z,968.22
2018-09-30T03:43:38.455Z,968.27
2018-09-30T03:44:38.450Z,968.30
2018-09-30T03:45:38.467Z,968.27
2018-09-30T03:46:38.425Z,968.29
2018-09-30T03:47:38.415Z,968.23
2018-09-30T03:48:38.405Z,968.18
2018-09-30T03:49:38.393Z,968.20
2018-09-30T03:50:38.428Z,968.26
2018-09-30T03:51:38.370Z,968.21
2018-09-30T03:52:38.356Z,968.23
2018-09-30T03:53:38.347Z,968.22
2018-09-30T03:54:38.335Z,968.21
2018-09-30T03:55:38.340Z,968.22
2018-09-30T03:56:38.397Z,968.16
2018-09-30T03:57:38.313Z,968.22
2018-09-30T03:58:38.311Z,968.15
2018-09-30T03:59:38.282Z,968.14
2018-09-30T04:00:38.280Z,968.19
2018-09-30T04:01:38.322Z,968.18
2018-09-30T04:02:38.248Z,968.19
2018-09-30T04:03:38.251Z,968.16
2018-09-30T04:04:38.223Z,968.14
2018-09-30T04:05:38.213Z,968.16
2018-09-30T04:06:38.258Z,968.18
2018-09-30T04:07:38.189Z,968.11
2018-09-30T04:08:38.191Z,968.11
2018-09-30T04:09:38.317Z,968.14
2018-09-30T04:10:38.175Z,968.11
2018-09-30T04:11:38.169Z,968.11
2018-09-30T04:12:38.157Z,968.07
2018-09-30T04:13:38.128Z,968.10
2018-09-30T04:14:38.115Z,968.11
2018-09-30T04:15:38.105Z,968.06
2018-09-30T04:16:38.096Z,968.04
2018-09-30T04:17:38.126Z,968.09
2018-09-30T04:18:38.074Z,968.09
2018-09-30T04:19:38.059Z,968.07
2018-09-30T04:20:38.048Z,968.06
2018-09-30T04:21:38.039Z,968.04
2018-09-30T04:22:38.061Z,968.07
2018-09-30T04:23:38.018Z,968.04
2018-09-30T04:24:38.003Z,968.01
2018-09-30T04:25:37.994Z,967.99
2018-09-30T04:26:37.981Z,967.98
2018-09-30T04:27:37.997Z,967.98
2018-09-30T04:28:37.960Z,968.02
2018-09-30T04:29:37.951Z,967.96
2018-09-30T04:30:37.937Z,967.97
2018-09-30T04:31:37.927Z,967.93
2018-09-30T04:32:37.976Z,967.95
2018-09-30T04:33:37.903Z,967.96
2018-09-30T04:34:37.894Z,967.95
2018-09-30T04:35:37.899Z,967.94
2018-09-30T04:36:37.872Z,967.87
2018-09-30T04:37:37.905Z,967.88
2018-09-30T04:38:37.860Z,967.89
2018-09-30T04:39:37.836Z,967.84
2018-09-30T04:40:37.828Z,967.88
2018-09-30T04:41:37.816Z,967.88
2018-09-30T04:42:37.804Z,967.90
2018-09-30T04:43:37.828Z,967.88
2018-09-30T04:44:37.784Z,967.90
2018-09-30T04:45:37.773Z,967.90
2018-09-30T04:46:37.761Z,967.92
2018-09-30T04:47:37.753Z,967.91
2018-09-30T04:48:37.779Z,967.91
2018-09-30T04:49:37.726Z,967.89
2018-09-30T04:50:37.719Z,967.87
2018-09-30T04:51:37.703Z,967.86
2018-09-30T04:52:37.692Z,967.84
2018-09-30T04:53:37.719Z,967.83
2018-09-30T04:54:37.672Z,967.81
2018-09-30T04:55:37.664Z,967.80
2018-09-30T04:56:37.653Z,967.81
2018-09-30T04:57:37.643Z,967.76
2018-09-30T04:58:37.665Z,967.77
2018-09-30T04:59:37.619Z,967.80
2018-09-30T05:00:37.610Z,967.76
2018-09-30T05:01:37.592Z,967.73
2018-09-30T05:02:37.589Z,967.75
2018-09-30T05:03:37.593Z,967.80
2018-09-30T05:04:37.585Z,967.80
2018-09-30T05:05:37.588Z,967.81
2018-09-30T05:06:37.552Z,967.84
2018-09-30T05:07:37.530Z,967.84
2018-09-30T05:08:37.522Z,967.90
2018-09-30T05:09:37.538Z,967.87
2018-09-30T05:10:37.499Z,967.86
2018-09-30T05:11:37.487Z,967.83
2018-09-30T05:12:37.478Z,967.87
2018-09-30T05:13:37.466Z,967.79
2018-09-30T05:14:37.478Z,967.87
2018-09-30T05:15:37.445Z,967.79
2018-09-30T05:16:37.429Z,967.84
2018-09-30T05:17:37.422Z,967.82
2018-09-30T05:18:37.411Z,967.86
2018-09-30T05:19:37.440Z,967.84
2018-09-30T05:20:37.428Z,967.86
2018-09-30T05:21:37.377Z,967.86
2018-09-30T05:22:37.369Z,967.88
2018-09-30T05:23:37.353Z,967.84
2018-09-30T05:24:37.346Z,967.85
2018-09-30T05:25:37.368Z,967.85
2018-09-30T05:26:37.319Z,967.84
2018-09-30T05:27:37.316Z,967.83
2018-09-30T05:28:37.304Z,967.81
2018-09-30T05:29:37.286Z,967.79
2018-09-30T05:30:37.319Z,967.84
2018-09-30T05:31:37.285Z,967.81
2018-09-30T05:32:37.254Z,967.78
2018-09-30T05:33:37.243Z,967.78
2018-09-30T05:34:37.234Z,967.76
2018-09-30T05:35:37.224Z,967.78
2018-09-30T05:36:37.241Z,967.76
2018-09-30T05:37:37.202Z,967.79
2018-09-30T05:38:37.191Z,967.83
2018-09-30T05:39:37.182Z,967.80
2018-09-30T05:40:37.164Z,967.83
2018-09-30T05:41:37.201Z,967.84
2018-09-30T05:42:37.146Z,967.88
2018-09-30T05:43:37.137Z,967.84
2018-09-30T05:44:37.124Z,967.82
2018-09-30T05:45:37.111Z,967.87
2018-09-30T05:46:37.136Z,967.90
2018-09-30T05:47:37.091Z,967.82
2018-09-30T05:48:37.078Z,967.81
2018-09-30T05:49:37.069Z,967.79
2018-09-30T05:50:37.065Z,967.73
2018-09-30T05:51:37.044Z,967.77
2018-09-30T05:52:37.061Z,967.74
2018-09-30T05:53:37.028Z,967.74
2018-09-30T05:54:37.011Z,967.79
2018-09-30T05:55:37.010Z,967.74
2018-09-30T05:56:36.992Z,967.72
2018-09-30T05:57:37.046Z,967.73
2018-09-30T05:58:36.992Z,967.77
2018-09-30T05:59:36.961Z,967.80
2018-09-30T06:00:36.951Z,967.76
2018-09-30T06:01:36.943Z,967.71
2018-09-30T06:02:36.961Z,967.72
2018-09-30T06:03:36.916Z,967.65
2018-09-30T06:04:36.919Z,967.69
2018-09-30T06:05:36.893Z,967.73
2018-09-30T06:06:36.884Z,967.70
2018-09-30T06:07:36.909Z,967.68
2018-09-30T06:08:36.909Z,967.74
2018-09-30T06:09:36.948Z,967.68
2018-09-30T06:10:36.843Z,967.65
2018-09-30T06:11:36.824Z,967.66
2018-09-30T06:12:36.832Z,967.66
2018-09-30T06:13:36.897Z,967.71
2018-09-30T06:14:36.795Z,967.70
2018-09-30T06:15:36.782Z,967.66
2018-09-30T06:16:36.775Z,967.73
2018-09-30T06:17:36.763Z,967.67
2018-09-30T06:18:36.788Z,967.67
2018-09-30T06:19:36.742Z,967.67
2018-09-30T06:20:36.728Z,967.70
2018-09-30T06:21:36.754Z,967.68
2018-09-30T06:22:36.711Z,967.69
2018-09-30T06:23:36.694Z,967.69
2018-09-30T06:24:36.689Z,967.66
2018-09-30T06:25:36.672Z,967.63
2018-09-30T06:26:36.709Z,967.67
2018-09-30T06:27:36.652Z,967.64
2018-09-30T06:28:36.643Z,967.67
2018-09-30T06:29:36.630Z,967.63
2018-09-30T06:30:36.665Z,967.64
2018-09-30T06:31:36.715Z,967.69
2018-09-30T06:32:36.628Z,967.67
2018-09-30T06:33:36.593Z,967.66
2018-09-30T06:34:36.580Z,967.66
2018-09-30T06:35:36.580Z,967.62
2018-09-30T06:36:36.576Z,967.61
2018-09-30T06:37:36.623Z,967.64
2018-09-30T06:38:36.559Z,967.61
2018-09-30T06:39:36.529Z,967.60
2018-09-30T06:40:36.515Z,967.58
2018-09-30T06:41:36.519Z,967.60
2018-09-30T06:42:36.520Z,967.56
2018-09-30T06:43:36.492Z,967.59
2018-09-30T06:44:36.500Z,967.55
2018-09-30T06:45:36.493Z,967.56
2018-09-30T06:46:36.447Z,967.59
2018-09-30T06:47:36.460Z,967.55
2018-09-30T06:48:36.419Z,967.58
2018-09-30T06:49:36.455Z,967.57
2018-09-30T06:50:36.465Z,967.57
2018-09-30T06:51:36.386Z,967.55
2018-09-30T06:52:36.413Z,967.55
2018-09-30T06:53:36.375Z,967.53
2018-09-30T06:54:36.365Z,967.55
2018-09-30T06:55:36.349Z,967.59
2018-09-30T06:56:36.342Z,967.61
2018-09-30T06:57:36.343Z,967.66
2018-09-30T06:58:36.311Z,967.65
2018-09-30T06:59:36.302Z,967.63
2018-09-30T07:00:36.285Z,967.56
2018-09-30T07:01:36.276Z,967.56
2018-09-30T07:02:36.299Z,967.60
2018-09-30T07:03:36.259Z,967.58
2018-09-30T07:04:36.251Z,967.56
2018-09-30T07:05:36.251Z,967.52
2018-09-30T07:06:36.231Z,967.60
2018-09-30T07:07:36.210Z,967.55
2018-09-30T07:08:36.225Z,967.60
2018-09-30T07:09:36.197Z,967.55
2018-09-30T07:10:36.191Z,967.54
2018-09-30T07:11:36.168Z,967.57
2018-09-30T07:12:36.163Z,967.57
2018-09-30T07:13:36.176Z,967.51
2018-09-30T07:14:36.140Z,967.56
2018-09-30T07:15:36.133Z,967.56
2018-09-30T07:16:36.116Z,967.54
2018-09-30T07:17:36.101Z,967.52
2018-09-30T07:18:36.153Z,967.48
2018-09-30T07:19:36.077Z,967.48
2018-09-30T07:20:36.079Z,967.51
2018-09-30T07:21:36.090Z,967.46
2018-09-30T07:22:36.055Z,967.48
2018-09-30T07:23:36.032Z,967.42
2018-09-30T07:24:36.031Z,967.41
2018-09-30T07:25:36.011Z,967.47
2018-09-30T07:26:36.045Z,967.40
2018-09-30T07:27:36.000Z,967.46
2018-09-30T07:28:35.976Z,967.47
2018-09-30T07:29:36.005Z,967.42
2018-09-30T07:30:35.959Z,967.45
2018-09-30T07:31:35.989Z,967.42
2018-09-30T07:32:35.947Z,967.45
2018-09-30T07:33:35.958Z,967.44
2018-09-30T07:34:35.908Z,967.44
2018-09-30T07:35:35.900Z,967.44
2018-09-30T07:36:35.945Z,967.43
2018-09-30T07:37:35.912Z,967.49
2018-09-30T07:38:35.867Z,967.48
2018-09-30T07:39:35.924Z,967.47
2018-09-30T07:40:35.842Z,967.39
2018-09-30T07:41:35.836Z,967.45
2018-09-30T07:42:35.842Z,967.41
2018-09-30T07:43:35.808Z,967.43
2018-09-30T07:44:35.816Z,967.38
2018-09-30T07:45:35.791Z,967.40
2018-09-30T07:46:35.789Z,967.41
2018-09-30T07:47:35.806Z,967.42
2018-09-30T07:48:35.761Z,967.38
2018-09-30T07:49:35.741Z,967.40
2018-09-30T07:50:35.739Z,967.42
2018-09-30T07:51:35.730Z,967.44
2018-09-30T07:52:35.760Z,967.44
2018-09-30T07:53:35.728Z,967.44
2018-09-30T07:54:35.694Z,967.44
2018-09-30T07:55:35.674Z,967.38
2018-09-30T07:56:35.670Z,967.36
2018-09-30T07:57:35.660Z,967.37
2018-09-30T07:58:35.670Z,967.35
2018-09-30T07:59:36.632Z,967.34
2018-09-30T08:00:35.626Z,967.33
2018-09-30T08:01:35.611Z,967.32
2018-09-30T08:02:35.604Z,967.32
2018-09-30T08:03:35.624Z,967.32
2018-09-30T08:04:35.578Z,967.35
2018-09-30T08:05:35.568Z,967.35
2018-09-30T08:06:35.561Z,967.36
2018-09-30T08:07:35.543Z,967.37
2018-09-30T08:08:35.573Z,967.35
2018-09-30T08:09:35.525Z,967.38
2018-09-30T08:10:35.516Z,967.36
2018-09-30T08:11:35.520Z,967.39
2018-09-30T08:12:35.503Z,967.38
2018-09-30T08:13:35.509Z,967.42
2018-09-30T08:14:35.500Z,967.37
2018-09-30T08:15:35.453Z,967.37
2018-09-30T08:16:35.518Z,967.36
2018-09-30T08:17:35.462Z,967.34
2018-09-30T08:18:35.425Z,967.35
2018-09-30T08:19:35.444Z,967.40
2018-09-30T08:20:35.396Z,967.32
2018-09-30T08:21:35.390Z,967.36
2018-09-30T08:22:35.377Z,967.37
2018-09-30T08:23:35.362Z,967.36
2018-09-30T08:24:35.459Z,967.35
2018-09-30T08:25:35.361Z,967.37
2018-09-30T08:26:35.329Z,967.37
2018-09-30T08:27:35.321Z,967.39
2018-09-30T08:28:35.305Z,967.36
2018-09-30T08:29:35.310Z,967.42
2018-09-30T08:30:35.364Z,967.44
2018-09-30T08:31:35.273Z,967.42
2018-09-30T08:32:35.308Z,967.38
2018-09-30T08:33:35.253Z,967.33
2018-09-30T08:34:35.238Z,967.34
2018-09-30T08:35:35.263Z,967.28
2018-09-30T08:36:35.223Z,967.30
2018-09-30T08:37:35.204Z,967.35
2018-09-30T08:38:35.194Z,967.32
2018-09-30T08:39:35.259Z,967.36
2018-09-30T08:40:35.207Z,967.33
2018-09-30T08:41:35.159Z,967.35
2018-09-30T08:42:35.153Z,967.38
2018-09-30T08:43:35.157Z,967.27
2018-09-30T08:44:35.129Z,967.26
2018-09-30T08:45:35.148Z,967.27
2018-09-30T08:46:35.152Z,967.30
2018-09-30T08:47:35.132Z,967.33
2018-09-30T08:48:35.089Z,967.27
2018-09-30T08:49:35.069Z,967.32
2018-09-30T08:50:35.098Z,967.31
2018-09-30T08:51:35.052Z,967.32
2018-09-30T08:52:35.036Z,967.28
2018-09-30T08:53:35.027Z,967.27
2018-09-30T08:54:35.045Z,967.28
2018-09-30T08:55:35.008Z,967.31
2018-09-30T08:56:34.992Z,967.33
2018-09-30T08:57:34.983Z,967.31
2018-09-30T08:58:34.970Z,967.24
2018-09-30T08:59:35.028Z,967.29
2018-09-30T09:00:34.951Z,967.27
2018-09-30T09:01:34.937Z,967.29
2018-09-30T09:02:34.925Z,967.32
2018-09-30T09:03:34.917Z,967.33
2018-09-30T09:04:34.940Z,967.30
2018-09-30T09:05:34.894Z,967.27
2018-09-30T09:06:34.884Z,967.28
2018-09-30T09:07:34.880Z,967.29
2018-09-30T09:08:34.865Z,967.26
2018-09-30T09:09:34.862Z,967.26
2018-09-30T09:10:34.857Z,967.28
2018-09-30T09:11:34.839Z,967.29
2018-09-30T09:12:34.831Z,967.24
2018-09-30T09:13:34.799Z,967.26
2018-09-30T09:14:34.796Z,967.24
2018-09-30T09:15:34.906Z,967.24
2018-09-30T09:16:34.764Z,967.27
2018-09-30T09:17:34.766Z,967.19
2018-09-30T09:18:34.766Z,967.21
2018-09-30T09:19:34.776Z,967.19
2018-09-30T09:20:34.733Z,967.21
2018-09-30T09:21:34.713Z,967.16
2018-09-30T09:22:34.746Z,967.13
2018-09-30T09:23:34.759Z,967.18
2018-09-30T09:24:34.699Z,967.18
2018-09-30T09:25:34.668Z,967.12
2018-09-30T09:26:34.665Z,967.08
2018-09-30T09:27:34.654Z,967.06
2018-09-30T09:28:34.719Z,967.07
2018-09-30T09:29:34.629Z,967.06
2018-09-30T09:30:34.607Z,967.06
2018-09-30T09:31:34.620Z,967.06
2018-09-30T09:32:34.586Z,967.05
2018-09-30T09:33:34.629Z,967.08
2018-09-30T09:34:34.561Z,967.02
2018-09-30T09:35:34.565Z,966.99
2018-09-30T09:36:34.554Z,967.04
2018-09-30T09:37:34.528Z,966.99
2018-09-30T09:38:34.566Z,966.99
2018-09-30T09:39:34.577Z,966.97
2018-09-30T09:40:34.499Z,966.99
2018-09-30T09:41:34.483Z,966.94
2018-09-30T09:42:34.470Z,966.97
2018-09-30T09:43:34.491Z,966.99
2018-09-30T09:44:34.483Z,966.89
2018-09-30T09:45:34.437Z,966.93
2018-09-30T09:46:34.430Z,966.92
2018-09-30T09:47:34.435Z,966.98
2018-09-30T09:48:34.403Z,966.89
2018-09-30T09:49:34.396Z,966.87
2018-09-30T09:50:34.429Z,966.90
2018-09-30T09:51:34.383Z,966.85
2018-09-30T09:52:34.376Z,966.89
2018-09-30T09:53:34.367Z,966.87
2018-09-30T09:54:34.352Z,966.87
2018-09-30T09:55:34.353Z,966.90
2018-09-30T09:56:34.324Z,966.88
2018-09-30T09:57:34.305Z,966.90
2018-09-30T09:58:34.297Z,966.87
2018-09-30T09:59:34.281Z,966.86
2018-09-30T10:00:34.308Z,966.84
2018-09-30T10:01:34.262Z,966.87
2018-09-30T10:02:34.252Z,966.86
2018-09-30T10:03:34.235Z,966.80
2018-09-30T10:04:34.233Z,966.75
2018-09-30T10:05:34.221Z,966.76
2018-09-30T10:06:34.225Z,966.71
2018-09-30T10:07:34.198Z,966.72
2018-09-30T10:08:34.187Z,966.70
2018-09-30T10:09:34.166Z,966.73
2018-09-30T10:10:34.161Z,966.70
2018-09-30T10:11:34.168Z,966.65
2018-09-30T10:12:34.145Z,966.66
2018-09-30T10:13:34.125Z,966.66
2018-09-30T10:14:34.116Z,966.65
2018-09-30T10:15:34.103Z,966.62
2018-09-30T10:16:34.120Z,966.60
2018-09-30T10:17:34.087Z,966.59
2018-09-30T10:18:34.078Z,966.57
2018-09-30T10:19:34.085Z,966.54
2018-09-30T10:20:34.051Z,966.59
2018-09-30T10:21:34.059Z,966.48
2018-09-30T10:22:34.031Z,966.48
2018-09-30T10:23:34.020Z,966.53
2018-09-30T10:24:34.009Z,966.53
2018-09-30T10:25:34.017Z,966.53
2018-09-30T10:26:33.999Z,966.47
2018-09-30T10:27:33.975Z,966.48
2018-09-30T10:28:33.966Z,966.49
2018-09-30T10:29:33.955Z,966.46
2018-09-30T10:30:33.967Z,966.44
2018-09-30T10:31:33.932Z,966.47
2018-09-30T10:32:33.920Z,966.41
2018-09-30T10:33:33.909Z,966.40
2018-09-30T10:34:33.904Z,966.39
2018-09-30T10:35:33.921Z,966.41
2018-09-30T10:36:33.875Z,966.39
2018-09-30T10:37:33.873Z,966.37
2018-09-30T10:38:34.007Z,966.33
2018-09-30T10:39:33.845Z,966.27
2018-09-30T10:40:33.846Z,966.23
2018-09-30T10:41:33.843Z,966.24
2018-09-30T10:42:33.805Z,966.24
2018-09-30T10:43:33.792Z,966.19
2018-09-30T10:44:33.784Z,966.19
2018-09-30T10:45:33.772Z,966.18
2018-09-30T10:46:33.777Z,966.24
2018-09-30T10:47:33.749Z,966.18
2018-09-30T10:48:33.748Z,966.16
2018-09-30T10:49:33.738Z,966.12
2018-09-30T10:50:33.721Z,966.09
2018-09-30T10:51:33.723Z,966.11
2018-09-30T10:52:33.716Z,966.10
2018-09-30T10:53:33.689Z,966.08
2018-09-30T10:54:33.673Z,966.05
2018-09-30T10:55:33.664Z,965.98
2018-09-30T10:56:33.686Z,965.98
2018-09-30T10:57:33.636Z,966.00
2018-09-30T10:58:33.644Z,965.95
2018-09-30T10:59:33.628Z,965.97
2018-09-30T11:00:33.608Z,965.90
2018-09-30T11:01:33.611Z,965.86
2018-09-30T11:02:33.610Z,965.88
2018-09-30T11:03:33.579Z,965.86
2018-09-30T11:04:33.578Z,965.87
2018-09-30T11:05:33.551Z,965.81
2018-09-30T11:06:33.542Z,965.80
2018-09-30T11:07:33.572Z,965.77
2018-09-30T11:08:33.516Z,965.85
2018-09-30T11:09:33.572Z,965.76
2018-09-30T11:10:33.487Z,965.74
2018-09-30T11:11:33.483Z,965.72
2018-09-30T11:12:33.489Z,965.73
2018-09-30T11:13:33.461Z,965.71
2018-09-30T11:14:33.454Z,965.71
2018-09-30T11:15:33.446Z,965.65
2018-09-30T11:16:33.425Z,965.58
2018-09-30T11:17:33.443Z,965.56
2018-09-30T11:18:33.407Z,965.61
2018-09-30T11:19:33.390Z,965.56
2018-09-30T11:20:33.381Z,965.51
2018-09-30T11:21:33.374Z,965.57
2018-09-30T11:22:33.482Z,965.54
2018-09-30T11:23:33.354Z,965.58
2018-09-30T11:24:33.339Z,965.53
2018-09-30T11:25:33.323Z,965.47
2018-09-30T11:26:33.318Z,965.47
2018-09-30T11:27:33.303Z,965.47
2018-09-30T11:28:33.315Z,965.49
2018-09-30T11:29:33.283Z,965.42
2018-09-30T11:30:33.269Z,965.38
2018-09-30T11:31:33.254Z,965.43
2018-09-30T11:32:33.258Z,965.39
2018-09-30T11:33:33.253Z,965.40
2018-09-30T11:34:33.220Z,965.37
2018-09-30T11:35:33.217Z,965.38
2018-09-30T11:36:33.213Z,965.41
2018-09-30T11:37:33.193Z,965.37
2018-09-30T11:38:33.226Z,965.34
2018-09-30T11:39:33.170Z,965.36
2018-09-30T11:40:33.154Z,965.34
2018-09-30T11:41:33.146Z,965.33
2018-09-30T11:42:33.142Z,965.34
2018-09-30T11:43:33.164Z,965.31
2018-09-30T11:44:33.133Z,965.34
2018-09-30T11:45:33.111Z,965.23
2018-09-30T11:46:33.087Z,965.27
2018-09-30T11:47:33.079Z,965.22
2018-09-30T11:48:33.120Z,965.21
2018-09-30T11:49:33.080Z,965.20
2018-09-30T11:50:33.060Z,965.23
2018-09-30T11:51:33.043Z,965.15
2018-09-30T11:52:33.046Z,965.17
2018-09-30T11:53:33.012Z,965.18
2018-09-30T11:54:33.017Z,965.17
2018-09-30T11:55:32.987Z,965.19
2018-09-30T11:56:32.984Z,965.16
2018-09-30T11:57:32.971Z,965.13
2018-09-30T11:58:32.954Z,965.14
2018-09-30T11:59:32.982Z,965.12
2018-09-30T12:00:32.935Z,965.10
2018-09-30T12:01:32.921Z,965.14
2018-09-30T12:02:32.923Z,965.08
2018-09-30T12:03:32.902Z,965.03
2018-09-30T12:04:32.928Z,965.00
2018-09-30T12:05:32.883Z,965.02
2018-09-30T12:06:32.868Z,964.98
2018-09-30T12:07:32.850Z,965.02
2018-09-30T12:08:32.843Z,965.01
2018-09-30T12:09:32.851Z,964.97
2018-09-30T12:10:32.853Z,964.99
2018-09-30T12:11:32.809Z,964.95
2018-09-30T12:12:32.800Z,964.88
2018-09-30T12:13:32.785Z,964.88
2018-09-30T12:14:32.786Z,964.88
2018-09-30T12:15:32.785Z,964.88
2018-09-30T12:16:32.750Z,964.81
2018-09-30T12:17:32.744Z,964.82
2018-09-30T12:18:32.765Z,964.79
2018-09-30T12:19:32.715Z,964.77
2018-09-30T12:20:32.747Z,964.76
2018-09-30T12:21:32.701Z,964.67
2018-09-30T12:22:32.730Z,964.71
2018-09-30T12:23:32.677Z,964.70
2018-09-30T12:24:32.667Z,964.65
2018-09-30T12:25:32.653Z,964.70
2018-09-30T12:26:32.638Z,964.66
2018-09-30T12:27:32.663Z,964.65
2018-09-30T12:28:32.619Z,964.61